Time;durP1;ratioP1;P1;durP2;ratioP2;P2;SDS_P1;SDS_P2;PMS_P1;PMS_P2;Temp;Humidity;BMP_temperature;BMP_pressure;BME280_temperature;BME280_humidity;BME280_pressure;Samples;Min_cycle;Max_cycle;Signal;HPM_P1;HPM_P2
2022/10/26 00:00:26;;;;;;;7.60;2.58;;;11.90;99.90;;;;;;1934453;72;21131;-72
2022/10/26 00:02:56;;;;;;;8.48;2.08;;;12.00;99.90;;;;;;1937004;72;21120;-72
2022/10/26 00:05:23;;;;;;;5.12;1.85;;;12.00;99.90;;;;;;1935438;73;21157;-72
2022/10/26 00:07:51;;;;;;;5.97;2.33;;;12.00;99.90;;;;;;1952869;73;21074;-73
2022/10/26 00:10:38;;;;;;;4.05;1.92;;;12.10;99.90;;;;;;1940665;73;21189;-73
2022/10/26 00:13:07;;;;;;;9.03;1.70;;;12.00;99.90;;;;;;1955756;73;21068;-73
2022/10/26 00:15:34;;;;;;;2.57;1.80;;;12.10;99.90;;;;;;1954865;73;21093;-72
2022/10/26 00:18:02;;;;;;;6.92;1.70;;;12.10;99.90;;;;;;1949321;72;21844;-72
2022/10/26 00:20:29;;;;;;;8.00;1.80;;;12.10;99.90;;;;;;1951877;73;21068;-72
2022/10/26 00:22:56;;;;;;;3.83;1.90;;;12.10;99.90;;;;;;1957115;73;21494;-72
2022/10/26 00:25:24;;;;;;;2.37;1.47;;;12.10;99.90;;;;;;1956339;73;21068;-72
2022/10/26 00:27:51;;;;;;;12.80;2.65;;;12.00;99.90;;;;;;1957782;73;21122;-72
2022/10/26 00:30:18;;;;;;;7.85;1.57;;;12.00;99.90;;;;;;1924797;73;21134;-72
2022/10/26 00:32:46;;;;;;;4.83;1.90;;;12.00;99.90;;;;;;1957367;73;20988;-73
2022/10/26 00:35:13;;;;;;;4.40;1.82;;;12.00;99.90;;;;;;1954690;73;21088;-72
2022/10/26 00:37:40;;;;;;;5.00;1.80;;;12.00;99.90;;;;;;1949569;73;21064;-73
2022/10/26 00:40:08;;;;;;;5.40;2.00;;;12.00;99.90;;;;;;1952958;73;21149;-73
2022/10/26 00:42:35;;;;;;;7.20;1.80;;;12.00;99.90;;;;;;1954459;73;21500;-73
2022/10/26 00:45:17;;;;;;;2.85;1.52;;;12.10;99.90;;;;;;1955693;72;21068;-72
2022/10/26 00:47:49;;;;;;;6.83;2.02;;;12.10;99.90;;;;;;1926765;73;21056;-73
2022/10/26 00:50:20;;;;;;;2.47;1.52;;;12.00;99.90;;;;;;1959288;72;21068;-73
2022/10/26 00:52:48;;;;;;;4.40;1.27;;;12.10;99.90;;;;;;1957691;73;21071;-72
2022/10/26 00:55:15;;;;;;;2.60;1.57;;;12.10;99.90;;;;;;1948264;73;21149;-72
2022/10/26 00:57:42;;;;;;;5.90;1.55;;;12.10;99.90;;;;;;1959257;73;21507;-72
2022/10/26 01:00:10;;;;;;;3.27;2.00;;;12.10;99.90;;;;;;1945397;73;21064;-72
2022/10/26 01:02:42;;;;;;;7.15;1.70;;;12.10;99.90;;;;;;1948509;73;21228;-72
2022/10/26 01:05:10;;;;;;;5.60;1.80;;;12.20;99.90;;;;;;1957253;73;21016;-72
2022/10/26 01:07:37;;;;;;;6.72;2.35;;;12.20;99.90;;;;;;1957877;73;21067;-72
2022/10/26 01:10:05;;;;;;;5.55;1.80;;;12.20;99.90;;;;;;1950851;73;21052;-72
2022/10/26 01:12:33;;;;;;;7.65;1.95;;;12.20;99.90;;;;;;1949138;73;21162;-73
2022/10/26 01:15:00;;;;;;;7.08;1.60;;;12.20;99.90;;;;;;1945371;73;21471;-72
2022/10/26 01:17:39;;;;;;;5.10;2.10;;;12.30;99.90;;;;;;1955226;73;21196;-72
2022/10/26 01:20:27;;;;;;;4.45;1.95;;;12.30;99.90;;;;;;1950977;73;21488;-72
2022/10/26 01:23:06;;;;;;;7.10;1.75;;;12.30;99.90;;;;;;1953766;72;21036;-73
2022/10/26 01:25:59;;;;;;;4.10;1.80;;;12.30;99.90;;;;;;1956331;72;21119;-72
2022/10/26 01:29:03;;;;;;;5.78;1.90;;;12.20;99.90;;;;;;1947396;73;21064;-71
2022/10/26 01:31:45;;;;;;;3.10;1.65;;;12.20;99.90;;;;;;1950064;73;21142;-72
2022/10/26 01:34:15;;;;;;;6.85;2.22;;;12.20;99.90;;;;;;1950580;73;21114;-71
2022/10/26 01:36:46;;;;;;;6.85;1.90;;;12.20;99.90;;;;;;1953893;73;21064;-71
2022/10/26 01:39:25;;;;;;;6.47;1.70;;;12.20;99.90;;;;;;1942543;73;21535;-72
2022/10/26 01:41:58;;;;;;;3.77;1.70;;;12.20;99.90;;;;;;1892669;75;21135;-72
2022/10/26 01:44:40;;;;;;;12.18;2.05;;;12.20;99.90;;;;;;1880485;76;21078;-72
2022/10/26 01:47:06;;;;;;;12.80;2.62;;;12.20;99.90;;;;;;1878396;76;21090;-72
2022/10/26 01:49:36;;;;;;;4.83;2.00;;;12.10;99.90;;;;;;1877826;76;21140;-73
2022/10/26 01:52:04;;;;;;;8.25;2.60;;;12.00;99.90;;;;;;1882034;74;21078;-73
2022/10/26 01:54:33;;;;;;;5.85;2.33;;;12.00;99.90;;;;;;1872540;76;21491;-72
2022/10/26 01:57:01;;;;;;;6.97;1.95;;;12.10;99.90;;;;;;1832714;76;21079;-72
2022/10/26 01:59:44;;;;;;;6.70;1.77;;;12.20;99.90;;;;;;1869751;76;21157;-72
2022/10/26 02:02:30;;;;;;;3.30;2.10;;;12.10;99.90;;;;;;1871837;76;21157;-71
2022/10/26 02:05:03;;;;;;;6.08;2.17;;;12.10;99.90;;;;;;1953964;72;21518;-72
2022/10/26 02:07:39;;;;;;;6.10;1.82;;;12.00;99.90;;;;;;1957345;72;21488;-71
2022/10/26 02:10:26;;;;;;;5.50;2.10;;;12.10;99.90;;;;;;1955041;73;21068;-73
2022/10/26 02:13:05;;;;;;;7.58;2.05;;;11.90;99.90;;;;;;1948495;73;21134;-74
2022/10/26 02:15:51;;;;;;;5.67;2.20;;;12.00;99.90;;;;;;1948854;73;21099;-73
2022/10/26 02:18:27;;;;;;;3.67;1.80;;;12.10;99.90;;;;;;1948382;73;21472;-73
2022/10/26 02:20:57;;;;;;;7.42;2.45;;;12.00;99.90;;;;;;1949725;72;21063;-72
2022/10/26 02:23:24;;;;;;;6.30;2.35;;;12.10;99.90;;;;;;1957101;72;21060;-71
2022/10/26 02:25:55;;;;;;;8.93;2.27;;;12.10;99.90;;;;;;1921774;73;21080;-72
2022/10/26 02:28:23;;;;;;;;;;;12.10;99.90;;;;;;1960560;73;21519;-71
2022/10/26 02:30:52;;;;;;;5.15;1.87;;;12.00;99.90;;;;;;1958463;73;20123;-71
2022/10/26 02:33:19;;;;;;;4.28;2.10;;;12.00;99.90;;;;;;1958557;73;21119;-71
2022/10/26 02:35:48;;;;;;;6.15;2.02;;;11.90;99.90;;;;;;1955933;73;21052;-73
2022/10/26 02:38:15;;;;;;;5.80;2.10;;;12.00;99.90;;;;;;1948045;73;21076;-73
2022/10/26 02:40:43;;;;;;;4.20;1.75;;;11.90;99.90;;;;;;1945975;73;21103;-72
2022/10/26 02:43:12;;;;;;;8.38;2.00;;;12.00;99.90;;;;;;1946673;72;21461;-73
2022/10/26 02:45:46;;;;;;;9.50;2.72;;;11.90;99.90;;;;;;1948998;73;21141;-73
2022/10/26 02:48:14;;;;;;;4.70;1.90;;;11.90;99.90;;;;;;1943951;73;21107;-73
2022/10/26 02:50:44;;;;;;;7.37;2.27;;;11.80;99.90;;;;;;1950568;73;21072;-72
2022/10/26 02:53:17;;;;;;;6.95;2.10;;;11.80;99.90;;;;;;1952794;73;21130;-73
2022/10/26 02:55:48;;;;;;;6.65;2.35;;;12.00;99.90;;;;;;1950926;73;21223;-73
2022/10/26 02:58:29;;;;;;;3.75;2.20;;;12.00;99.90;;;;;;1949502;73;21456;-73
2022/10/26 03:00:56;;;;;;;3.52;2.10;;;11.90;99.90;;;;;;1957464;73;21141;-73
2022/10/26 03:03:23;;;;;;;5.15;2.22;;;11.80;99.90;;;;;;1959379;72;21227;-72
2022/10/26 03:05:51;;;;;;;7.22;2.20;;;11.90;99.90;;;;;;1954290;73;21137;-72
2022/10/26 03:08:18;;;;;;;9.18;2.30;;;12.00;99.90;;;;;;1949432;73;21142;-72
2022/10/26 03:10:46;;;;;;;7.85;1.90;;;12.10;99.90;;;;;;1952827;73;21130;-72
2022/10/26 03:13:13;;;;;;;7.40;2.33;;;12.20;99.90;;;;;;1949334;73;21080;-72
2022/10/26 03:15:41;;;;;;;3.62;2.20;;;12.10;99.90;;;;;;1949783;73;21472;-71
2022/10/26 03:18:08;;;;;;;4.53;1.87;;;11.90;99.90;;;;;;1952773;72;21060;-73
2022/10/26 03:20:35;;;;;;;9.63;1.90;;;11.90;99.90;;;;;;1957908;73;21055;-73
2022/10/26 03:23:02;;;;;;;9.30;2.80;;;12.10;99.90;;;;;;1957999;73;21125;-73
2022/10/26 03:25:30;;;;;;;4.70;1.67;;;12.10;99.90;;;;;;1949356;73;21059;-71
2022/10/26 03:27:58;;;;;;;5.37;2.22;;;12.10;99.90;;;;;;1949340;73;21137;-72
2022/10/26 03:30:26;;;;;;;8.20;2.22;;;12.10;99.90;;;;;;1947978;73;21053;-71
2022/10/26 03:32:53;;;;;;;5.10;2.45;;;12.20;99.90;;;;;;1951725;73;21118;-72
2022/10/26 03:35:20;;;;;;;6.37;2.33;;;12.20;99.90;;;;;;1957989;73;21162;-73
2022/10/26 03:37:48;;;;;;;7.50;2.40;;;12.30;99.90;;;;;;1955469;73;21208;-71
2022/10/26 03:40:15;;;;;;;5.70;2.72;;;12.20;99.90;;;;;;1957924;73;21036;-73
2022/10/26 03:42:42;;;;;;;14.95;3.27;;;12.20;99.90;;;;;;1955924;73;21060;-73
2022/10/26 03:45:10;;;;;;;6.50;2.95;;;12.10;99.90;;;;;;1956634;73;21028;-73
2022/10/26 03:47:43;;;;;;;8.60;2.50;;;12.00;99.90;;;;;;1956575;73;21514;-72
2022/10/26 03:50:11;;;;;;;9.98;2.75;;;12.10;99.90;;;;;;1958351;73;21012;-72
2022/10/26 03:52:38;;;;;;;7.60;3.02;;;12.20;99.90;;;;;;1955590;72;21556;-72
2022/10/26 03:55:06;;;;;;;6.97;2.87;;;12.20;99.90;;;;;;1952573;73;21473;-71
2022/10/26 03:57:33;;;;;;;14.85;3.08;;;12.20;99.90;;;;;;1955441;73;21099;-71
2022/10/26 04:00:00;;;;;;;5.05;3.37;;;12.10;99.90;;;;;;1950794;73;21068;-71
2022/10/26 04:02:27;;;;;;;5.00;2.80;;;12.10;99.90;;;;;;1950117;73;21155;-71
2022/10/26 04:04:55;;;;;;;7.35;3.10;;;12.10;99.90;;;;;;1951478;73;21114;-72
2022/10/26 04:07:22;;;;;;;8.40;2.87;;;12.10;99.90;;;;;;1952547;72;21130;-72
2022/10/26 04:09:49;;;;;;;5.90;3.00;;;12.10;99.90;;;;;;1945383;73;21078;-72
2022/10/26 04:12:17;;;;;;;5.58;2.58;;;12.10;99.90;;;;;;1958394;73;21056;-73
2022/10/26 04:14:44;;;;;;;6.90;2.62;;;12.10;99.90;;;;;;1937589;73;21468;-72
2022/10/26 04:17:11;;;;;;;8.78;2.77;;;12.20;99.90;;;;;;1951033;73;21122;-72
2022/10/26 04:19:39;;;;;;;6.80;2.37;;;12.20;99.90;;;;;;1948370;73;21444;-71
2022/10/26 04:22:06;;;;;;;9.35;2.80;;;12.20;99.90;;;;;;1953169;73;21064;-72
2022/10/26 04:24:33;;;;;;;4.17;2.20;;;12.20;99.90;;;;;;1956118;72;21088;-71
2022/10/26 04:27:00;;;;;;;6.00;2.10;;;12.20;99.90;;;;;;1948592;73;21064;-72
2022/10/26 04:29:28;;;;;;;3.30;1.90;;;12.20;99.90;;;;;;1946381;73;21060;-72
2022/10/26 04:31:55;;;;;;;3.87;1.60;;;12.30;99.90;;;;;;1947955;73;21063;-72
2022/10/26 04:34:22;;;;;;;5.25;2.25;;;12.30;99.90;;;;;;1950103;72;21060;-71
2022/10/26 04:36:50;;;;;;;2.87;1.77;;;12.10;99.90;;;;;;1955929;73;21129;-71
2022/10/26 04:39:17;;;;;;;5.42;1.87;;;12.30;99.90;;;;;;1959212;73;21260;-73
2022/10/26 04:41:44;;;;;;;5.37;2.25;;;12.30;99.90;;;;;;1953595;73;21061;-71
2022/10/26 04:44:12;;;;;;;5.87;2.50;;;12.20;99.90;;;;;;1947057;73;21076;-72
2022/10/26 04:46:39;;;;;;;2.98;1.80;;;12.10;99.90;;;;;;1946127;73;21231;-72
2022/10/26 04:49:06;;;;;;;7.83;1.95;;;12.20;99.90;;;;;;1954019;73;21041;-72
2022/10/26 04:51:34;;;;;;;7.90;2.65;;;12.30;99.90;;;;;;1959203;73;21063;-72
2022/10/26 04:54:02;;;;;;;7.05;2.90;;;12.30;99.90;;;;;;1950017;73;21147;-72
2022/10/26 04:56:30;;;;;;;4.87;2.22;;;12.10;99.90;;;;;;1955916;73;21076;-71
2022/10/26 04:58:57;;;;;;;8.28;2.40;;;12.10;99.90;;;;;;1947558;72;21215;-72
2022/10/26 05:01:24;;;;;;;5.45;2.87;;;12.10;99.90;;;;;;1949457;73;21040;-71
2022/10/26 05:03:52;;;;;;;4.75;2.08;;;12.20;99.90;;;;;;1943598;73;21154;-72
2022/10/26 05:06:20;;;;;;;3.60;2.17;;;12.10;99.90;;;;;;1944579;73;21470;-72
2022/10/26 05:08:47;;;;;;;8.43;2.12;;;12.20;99.90;;;;;;1952796;73;21163;-72
2022/10/26 05:11:15;;;;;;;2.45;2.05;;;12.20;99.90;;;;;;1957112;73;21103;-73
2022/10/26 05:13:42;;;;;;;4.60;1.90;;;12.20;99.90;;;;;;1948116;73;21076;-71
2022/10/26 05:16:09;;;;;;;5.53;2.25;;;12.20;99.90;;;;;;1952327;73;21045;-69
2022/10/26 05:18:37;;;;;;;4.28;2.35;;;12.30;99.90;;;;;;1946685;73;21460;-74
2022/10/26 05:21:04;;;;;;;5.00;1.95;;;12.30;99.90;;;;;;1953976;73;21091;-74
2022/10/26 05:23:31;;;;;;;7.15;1.98;;;12.20;99.90;;;;;;1955951;73;21125;-72
2022/10/26 05:25:59;;;;;;;8.20;2.75;;;12.20;99.90;;;;;;1950746;73;21067;-73
2022/10/26 05:28:26;;;;;;;5.33;2.30;;;12.30;99.90;;;;;;1928663;73;21210;-72
2022/10/26 05:30:53;;;;;;;3.55;1.72;;;12.30;99.90;;;;;;1955256;73;21487;-73
2022/10/26 05:33:20;;;;;;;11.20;2.22;;;12.20;99.90;;;;;;1951976;73;21065;-72
2022/10/26 05:35:48;;;;;;;3.52;2.25;;;12.20;99.90;;;;;;1951089;73;21126;-73
2022/10/26 05:38:16;;;;;;;5.05;2.37;;;12.30;99.90;;;;;;1951108;73;21506;-74
2022/10/26 05:40:53;;;;;;;3.50;1.90;;;12.30;99.90;;;;;;1950381;73;21059;-74
2022/10/26 05:43:21;;;;;;;5.85;2.08;;;12.30;99.90;;;;;;1955377;73;21148;-74
2022/10/26 05:45:50;;;;;;;3.47;1.75;;;12.30;99.90;;;;;;1951105;73;21137;-74
2022/10/26 05:48:17;;;;;;;5.45;2.22;;;12.30;99.90;;;;;;1947521;73;21550;-74
2022/10/26 05:50:45;;;;;;;5.40;2.30;;;12.30;99.90;;;;;;1947966;73;21068;-74
2022/10/26 05:53:12;;;;;;;6.03;2.30;;;12.30;99.90;;;;;;1956517;73;21200;-74
2022/10/26 05:55:40;;;;;;;6.97;2.60;;;12.30;99.90;;;;;;1955744;73;21448;-72
2022/10/26 05:58:12;;;;;;;4.50;2.33;;;12.30;99.90;;;;;;1950856;72;21070;-74
2022/10/26 06:00:45;;;;;;;8.13;2.22;;;12.40;99.90;;;;;;1957773;73;21048;-74
2022/10/26 06:03:28;;;;;;;4.72;2.50;;;12.40;99.90;;;;;;1954665;71;21147;-74
2022/10/26 06:05:56;;;;;;;7.83;2.37;;;12.50;99.90;;;;;;1947869;73;21188;-75
2022/10/26 06:08:25;;;;;;;6.35;3.02;;;12.40;99.90;;;;;;1955691;73;21149;-74
2022/10/26 06:10:53;;;;;;;8.80;2.77;;;12.30;99.90;;;;;;1958914;73;21067;-75
2022/10/26 06:13:21;;;;;;;8.85;2.77;;;12.30;99.90;;;;;;1951751;72;20996;-74
2022/10/26 06:16:00;;;;;;;10.75;2.65;;;12.30;99.90;;;;;;1951339;73;21433;-74
2022/10/26 06:18:51;;;;;;;5.05;2.58;;;12.30;99.90;;;;;;1951003;72;21118;-74
2022/10/26 06:21:31;;;;;;;5.50;2.30;;;12.40;99.90;;;;;;1952431;73;21501;-73
2022/10/26 06:24:10;;;;;;;8.20;3.42;;;12.50;99.90;;;;;;1959057;73;21049;-74
2022/10/26 06:27:04;;;;;;;4.92;2.72;;;12.30;99.90;;;;;;1955636;72;21102;-73
2022/10/26 06:29:43;;;;;;;7.15;2.83;;;12.40;99.90;;;;;;1957789;73;21141;-74
2022/10/26 06:32:10;;;;;;;18.77;3.80;;;12.50;99.90;;;;;;1957516;73;21122;-73
2022/10/26 06:34:39;;;;;;;10.30;2.55;;;12.50;99.90;;;;;;1952323;72;21421;-73
2022/10/26 06:37:06;;;;;;;11.00;2.98;;;12.50;99.90;;;;;;1950173;73;21017;-74
2022/10/26 06:39:35;;;;;;;6.75;2.75;;;12.50;99.90;;;;;;1924554;73;21456;-74
2022/10/26 06:42:03;;;;;;;7.30;2.90;;;12.50;99.90;;;;;;1959146;72;21537;-75
2022/10/26 06:44:30;;;;;;;8.65;4.00;;;12.40;99.90;;;;;;1957487;73;21125;-74
2022/10/26 06:47:18;;;;;;;11.12;3.02;;;12.50;99.90;;;;;;1954074;73;21163;-73
2022/10/26 06:49:52;;;;;;;6.85;2.52;;;12.50;99.90;;;;;;1954753;73;21186;-73
2022/10/26 06:52:40;;;;;;;6.12;2.95;;;12.60;99.90;;;;;;1954299;73;21437;-73
2022/10/26 06:55:13;;;;;;;6.78;3.33;;;12.50;99.90;;;;;;1947160;73;21146;-74
2022/10/26 06:57:40;;;;;;;7.97;3.05;;;12.60;99.90;;;;;;1952815;73;21542;-74
2022/10/26 07:00:17;;;;;;;7.92;3.08;;;12.50;99.90;;;;;;1950235;72;21126;-74
2022/10/26 07:02:45;;;;;;;6.83;2.90;;;12.60;99.90;;;;;;1958993;73;21544;-74
2022/10/26 07:05:12;;;;;;;5.70;3.00;;;12.60;99.90;;;;;;1956497;73;21041;-74
2022/10/26 07:07:44;;;;;;;11.25;2.80;;;12.60;99.90;;;;;;1947182;73;21060;-73
2022/10/26 07:10:12;;;;;;;9.23;3.05;;;12.60;99.90;;;;;;1956097;73;21545;-72
2022/10/26 07:12:39;;;;;;;7.75;3.37;;;12.70;99.90;;;;;;1956404;73;21125;-74
2022/10/26 07:15:11;;;;;;;9.15;3.25;;;12.70;99.90;;;;;;1952820;73;21411;-74
2022/10/26 07:17:46;;;;;;;13.67;3.30;;;12.70;99.90;;;;;;1947333;73;21567;-75
2022/10/26 07:20:16;;;;;;;7.92;3.22;;;12.70;99.90;;;;;;1948057;73;21058;-75
2022/10/26 07:22:43;;;;;;;12.47;3.50;;;12.80;99.90;;;;;;1948813;73;21119;-75
2022/10/26 07:25:11;;;;;;;5.55;3.12;;;12.70;99.90;;;;;;1952016;73;21188;-75
2022/10/26 07:27:38;;;;;;;12.13;3.27;;;12.80;99.90;;;;;;1949756;73;21162;-74
2022/10/26 07:30:06;;;;;;;10.60;3.35;;;12.80;99.90;;;;;;1952667;73;21080;-74
2022/10/26 07:32:34;;;;;;;6.08;3.35;;;12.90;99.90;;;;;;1950509;73;21520;-73
2022/10/26 07:35:01;;;;;;;6.03;3.20;;;12.90;99.90;;;;;;1950292;73;21068;-74
2022/10/26 07:37:28;;;;;;;5.40;2.67;;;12.90;99.90;;;;;;1950125;73;21064;-75
2022/10/26 07:39:56;;;;;;;7.28;3.25;;;12.90;99.90;;;;;;1948708;73;21064;-74
2022/10/26 07:42:23;;;;;;;5.40;2.60;;;12.90;99.90;;;;;;1951483;72;21045;-74
2022/10/26 07:44:50;;;;;;;13.48;3.22;;;12.90;99.90;;;;;;1946238;73;21122;-74
2022/10/26 07:47:17;;;;;;;10.48;3.25;;;13.00;99.90;;;;;;1947824;73;21120;-74
2022/10/26 07:49:45;;;;;;;6.62;2.77;;;13.10;99.90;;;;;;1954957;73;21087;-75
2022/10/26 07:52:12;;;;;;;9.98;3.12;;;12.90;99.90;;;;;;1959511;73;21056;-75
2022/10/26 07:54:39;;;;;;;8.40;3.00;;;13.00;99.90;;;;;;1953377;73;21149;-75
2022/10/26 07:57:07;;;;;;;9.75;2.95;;;13.00;99.90;;;;;;1949824;73;21060;-73
2022/10/26 07:59:34;;;;;;;10.38;3.00;;;13.10;99.90;;;;;;1949444;73;21549;-73
2022/10/26 08:02:01;;;;;;;5.33;2.87;;;13.20;99.90;;;;;;1954256;73;21041;-73
2022/10/26 08:04:29;;;;;;;11.75;4.00;;;13.30;99.90;;;;;;1958558;73;21432;-73
2022/10/26 08:06:56;;;;;;;5.55;2.87;;;13.30;99.90;;;;;;1953807;73;21060;-73
2022/10/26 08:09:23;;;;;;;9.00;3.27;;;13.20;99.90;;;;;;1955148;73;21061;-73
2022/10/26 08:11:51;;;;;;;11.88;3.65;;;13.20;99.90;;;;;;1959300;72;21467;-74
2022/10/26 08:14:18;;;;;;;14.05;3.50;;;13.40;99.90;;;;;;1951937;73;21174;-74
2022/10/26 08:16:46;;;;;;;9.85;4.15;;;13.50;99.90;;;;;;1946053;73;21487;-74
2022/10/26 08:19:13;;;;;;;13.28;3.85;;;13.50;99.90;;;;;;1956802;73;21468;-74
2022/10/26 08:21:41;;;;;;;13.95;3.50;;;13.50;99.90;;;;;;1952929;73;21138;-74
2022/10/26 08:24:08;;;;;;;9.28;3.35;;;13.40;99.90;;;;;;1948418;73;21505;-74
2022/10/26 08:26:35;;;;;;;9.95;4.15;;;13.40;99.90;;;;;;1954876;73;21583;-73
2022/10/26 08:29:03;;;;;;;11.05;3.95;;;13.50;99.90;;;;;;1949470;73;21130;-73
2022/10/26 08:31:30;;;;;;;7.47;3.47;;;13.60;99.90;;;;;;1949462;73;21170;-72
2022/10/26 08:33:58;;;;;;;8.10;3.47;;;13.60;99.90;;;;;;1948553;73;21115;-73
2022/10/26 08:36:26;;;;;;;12.58;3.92;;;13.60;99.90;;;;;;1952856;73;21556;-74
2022/10/26 08:38:54;;;;;;;11.15;4.58;;;13.80;99.90;;;;;;1951467;73;21097;-74
2022/10/26 08:41:24;;;;;;;7.30;4.25;;;13.80;99.90;;;;;;1956202;73;21068;-73
2022/10/26 08:43:56;;;;;;;12.33;4.75;;;13.90;99.90;;;;;;1932418;73;21212;-74
2022/10/26 08:46:27;;;;;;;9.93;4.65;;;13.80;99.90;;;;;;1945485;73;21036;-73
2022/10/26 08:48:56;;;;;;;12.18;4.37;;;13.90;99.90;;;;;;1949168;73;21072;-73
2022/10/26 08:51:26;;;;;;;35.95;5.05;;;13.70;99.90;;;;;;1949925;73;21496;-74
2022/10/26 08:54:05;;;;;;;7.60;3.80;;;13.80;99.90;;;;;;1955077;73;21072;-73
2022/10/26 08:56:41;;;;;;;11.57;4.25;;;13.80;99.90;;;;;;1955889;73;21072;-73
2022/10/26 08:59:29;;;;;;;9.78;4.10;;;14.00;99.90;;;;;;1948116;73;21068;-73
2022/10/26 09:01:56;;;;;;;12.40;3.90;;;13.90;99.90;;;;;;1948984;73;21177;-72
2022/10/26 09:04:28;;;;;;;16.27;4.22;;;14.00;99.90;;;;;;1957456;72;21121;-72
2022/10/26 09:07:14;;;;;;;14.35;4.20;;;14.00;99.90;;;;;;1952451;73;21131;-73
2022/10/26 09:10:02;;;;;;;9.88;3.60;;;14.00;99.90;;;;;;1956228;73;21041;-73
2022/10/26 09:13:01;;;;;;;15.05;4.10;;;14.20;99.90;;;;;;1951372;73;21045;-72
2022/10/26 09:15:44;;;;;;;8.18;3.60;;;14.40;99.90;;;;;;1956572;73;21484;-73
2022/10/26 09:18:30;;;;;;;13.35;3.90;;;14.50;99.90;;;;;;1955358;73;21417;-74
2022/10/26 09:21:09;;;;;;;11.03;3.10;;;14.70;99.90;;;;;;1954581;72;21102;-73
2022/10/26 09:23:55;;;;;;;7.17;2.98;;;14.80;99.90;;;;;;1954598;73;21065;-73
2022/10/26 09:26:38;;;;;;;9.00;2.95;;;14.90;99.90;;;;;;1959326;73;21067;-73
2022/10/26 09:29:07;;;;;;;6.80;2.35;;;15.20;99.90;;;;;;1959445;72;21197;-73
2022/10/26 09:31:37;;;;;;;3.33;1.57;;;15.60;99.90;;;;;;1956618;73;21063;-74
2022/10/26 09:34:04;;;;;;;;;;;16.00;99.90;;;;;;1958030;73;21534;-73
2022/10/26 09:36:31;;;;;;;9.15;2.45;;;16.10;99.90;;;;;;1958464;73;20119;-73
2022/10/26 09:39:17;;;;;;;7.92;2.17;;;16.10;99.90;;;;;;1951065;73;21138;-72
2022/10/26 09:41:50;;;;;;;9.15;2.02;;;16.40;99.90;;;;;;1911471;73;21115;-73
2022/10/26 09:44:25;;;;;;;6.10;2.05;;;16.90;99.90;;;;;;1937749;73;21029;-73
2022/10/26 09:47:07;;;;;;;3.98;1.60;;;17.10;99.90;;;;;;1948831;72;21303;-72
2022/10/26 09:49:42;;;;;;;7.03;1.75;;;17.50;99.90;;;;;;1896774;74;21089;-70
2022/10/26 09:52:10;;;;;;;5.55;1.80;;;17.70;99.90;;;;;;1936733;73;21476;-72
2022/10/26 09:54:37;;;;;;;13.85;2.33;;;17.90;99.90;;;;;;1940556;73;21143;-72
2022/10/26 09:57:04;;;;;;;2.75;1.30;;;18.20;99.90;;;;;;1936029;73;21165;-72
2022/10/26 09:59:33;;;;;;;4.17;1.62;;;18.30;99.90;;;;;;1937320;73;21446;-73
2022/10/26 10:02:01;;;;;;;2.05;1.45;;;18.80;99.90;;;;;;1931405;73;21045;-72
2022/10/26 10:04:30;;;;;;;4.60;1.55;;;18.80;99.90;;;;;;1944572;73;21545;-72
2022/10/26 10:07:06;;;;;;;5.10;1.62;;;18.80;99.90;;;;;;1959075;73;21156;-73
2022/10/26 10:09:34;;;;;;;4.92;1.80;;;18.90;99.90;;;;;;1948355;73;21060;-72
2022/10/26 10:12:02;;;;;;;2.98;1.20;;;19.20;99.90;;;;;;1938590;72;21178;-72
2022/10/26 10:14:34;;;;;;;10.85;1.52;;;19.20;99.90;;;;;;1936825;73;21069;-72
2022/10/26 10:17:04;;;;;;;6.40;1.52;;;19.40;99.90;;;;;;1935964;72;21422;-72
2022/10/26 10:19:33;;;;;;;3.47;1.20;;;19.50;99.90;;;;;;1924646;73;21123;-71
2022/10/26 10:22:23;;;;;;;3.05;1.00;;;19.10;99.90;;;;;;1935773;72;21081;-72
2022/10/26 10:24:56;;;;;;;3.70;1.50;;;19.00;99.90;;;;;;1940228;72;21840;-71
2022/10/26 10:27:23;;;;;;;5.53;1.40;;;19.30;99.90;;;;;;1941620;73;21047;-71
2022/10/26 10:29:57;;;;;;;5.17;1.25;;;19.40;99.90;;;;;;1938210;73;21143;-72
2022/10/26 10:32:32;;;;;;;11.22;1.70;;;19.30;99.90;;;;;;1940185;73;21050;-70
2022/10/26 10:35:00;;;;;;;3.27;1.40;;;18.90;99.90;;;;;;1932235;73;21058;-72
2022/10/26 10:37:43;;;;;;;6.72;1.20;;;18.80;99.90;;;;;;1939466;72;21099;-72
2022/10/26 10:40:21;;;;;;;6.47;1.60;;;19.10;99.90;;;;;;1933221;72;21176;-71
2022/10/26 10:42:48;;;;;;;7.45;1.62;;;19.40;99.90;;;;;;1919328;73;21126;-72
2022/10/26 10:45:21;;;;;;;3.20;1.70;;;19.80;99.90;;;;;;1936307;73;21136;-72
2022/10/26 10:48:08;;;;;;;11.83;1.72;;;20.40;99.90;;;;;;1940461;72;21451;-72
2022/10/26 10:50:36;;;;;;;4.97;1.30;;;21.00;99.90;;;;;;1938549;73;21114;-71
2022/10/26 10:53:15;;;;;;;3.80;1.30;;;21.10;99.90;;;;;;1932692;73;21434;-71
2022/10/26 10:55:44;;;;;;;6.35;1.37;;;21.40;99.90;;;;;;1937329;73;21138;-72
2022/10/26 10:58:23;;;;;;;3.72;1.42;;;21.20;99.90;;;;;;1938158;73;21178;-71
2022/10/26 11:00:51;;;;;;;2.72;1.32;;;21.10;99.90;;;;;;1931487;73;21060;-72
2022/10/26 11:03:40;;;;;;;2.98;0.88;;;20.90;99.90;;;;;;1940078;73;21058;-72
2022/10/26 11:06:18;;;;;;;4.87;1.25;;;20.80;99.90;;;;;;1924877;73;21070;-73
2022/10/26 11:09:04;;;;;;;4.25;1.40;;;21.00;99.90;;;;;;1929722;72;21180;-73
2022/10/26 11:11:33;;;;;;;4.78;1.20;;;21.30;99.90;;;;;;1932280;73;21583;-73
2022/10/26 11:14:04;;;;;;;7.85;1.20;;;21.90;99.90;;;;;;1937740;73;21111;-71
2022/10/26 11:16:34;;;;;;;7.17;1.62;;;21.70;99.90;;;;;;1942709;73;21069;-71
2022/10/26 11:19:17;;;;;;;3.60;0.95;;;22.40;99.90;;;;;;1934551;73;21053;-73
2022/10/26 11:21:45;;;;;;;4.55;0.93;;;23.00;99.90;;;;;;1939332;73;21529;-71
2022/10/26 11:24:21;;;;;;;7.03;1.57;;;23.10;99.90;;;;;;1945433;72;21433;-71
2022/10/26 11:27:00;;;;;;;2.50;0.93;;;22.50;99.90;;;;;;1946444;73;21060;-73
2022/10/26 11:29:52;;;;;;;5.92;1.02;;;22.90;99.90;;;;;;1942196;73;21073;-71
2022/10/26 11:32:22;;;;;;;8.28;1.15;;;22.60;99.90;;;;;;1935786;73;21481;-73
2022/10/26 11:34:55;;;;;;;5.22;1.00;;;22.90;99.90;;;;;;1934869;73;21061;-72
2022/10/26 11:37:29;;;;;;;6.35;1.15;;;22.80;99.90;;;;;;1935038;73;21057;-73
2022/10/26 11:40:17;;;;;;;2.72;0.93;;;22.50;99.90;;;;;;1941624;72;21523;-72
2022/10/26 11:42:47;;;;;;;2.92;0.88;;;22.20;99.90;;;;;;1943067;73;21060;-71
2022/10/26 11:45:23;;;;;;;3.37;0.90;;;22.00;99.90;;;;;;1941472;73;21076;-71
2022/10/26 11:47:53;;;;;;;4.97;1.25;;;22.00;99.90;;;;;;1938490;73;21064;-72
2022/10/26 11:50:32;;;;;;;8.18;1.60;;;21.90;99.90;;;;;;1942309;73;21135;-73
2022/10/26 11:53:16;;;;;;;1.98;0.80;;;22.00;99.90;;;;;;1940665;73;21078;-72
2022/10/26 11:55:52;;;;;;;7.37;1.67;;;21.70;99.90;;;;;;1938274;73;21440;-72
2022/10/26 11:58:21;;;;;;;2.15;0.75;;;21.90;99.90;;;;;;1941923;73;21076;-72
2022/10/26 12:00:51;;;;;;;5.60;0.70;;;21.80;99.90;;;;;;1924071;73;21525;-72
2022/10/26 12:03:21;;;;;;;2.90;0.98;;;21.90;99.90;;;;;;1943211;73;21444;-71
2022/10/26 12:05:50;;;;;;;4.42;0.80;;;22.10;99.90;;;;;;1940118;73;21080;-71
2022/10/26 12:08:26;;;;;;;1.82;0.78;;;21.80;99.90;;;;;;1944507;72;21053;-71
2022/10/26 12:10:59;;;;;;;7.22;1.10;;;22.30;99.90;;;;;;1941613;73;21168;-69
2022/10/26 12:13:33;;;;;;;2.87;1.00;;;22.60;99.90;;;;;;1936789;73;21052;-70
2022/10/26 12:16:26;;;;;;;4.00;1.22;;;22.50;99.90;;;;;;1943104;73;21073;-70
2022/10/26 12:18:56;;;;;;;4.22;1.10;;;22.30;99.90;;;;;;1914988;73;21071;-70
2022/10/26 12:21:31;;;;;;;2.98;1.10;;;22.20;99.90;;;;;;1947975;73;21185;-70
2022/10/26 12:24:04;;;;;;;2.22;1.17;;;22.10;99.90;;;;;;1934588;73;21697;-72
2022/10/26 12:26:37;;;;;;;5.20;1.02;;;22.20;99.90;;;;;;1932662;73;21465;-72
2022/10/26 12:29:08;;;;;;;5.87;1.05;;;22.00;99.90;;;;;;1949864;72;21126;-73
2022/10/26 12:31:41;;;;;;;0.78;0.55;;;21.80;99.90;;;;;;1936683;73;21062;-72
2022/10/26 12:34:16;;;;;;;5.35;1.05;;;21.80;99.90;;;;;;1940410;73;21076;-73
2022/10/26 12:37:01;;;;;;;11.65;1.17;;;21.90;99.90;;;;;;1948345;72;21060;-73
2022/10/26 12:39:39;;;;;;;3.87;1.45;;;22.00;99.90;;;;;;1936368;73;21079;-71
2022/10/26 12:42:10;;;;;;;2.98;0.80;;;21.70;99.90;;;;;;1940021;73;21437;-71
2022/10/26 12:47:36;;;;;;;6.12;1.00;;;21.60;99.90;;;;;;1981812;71;21089;-72
2022/10/26 12:50:10;;;;;;;3.27;0.88;;;21.50;99.90;;;;;;1974138;71;21122;-71
2022/10/26 12:52:57;;;;;;;8.63;1.30;;;21.40;99.90;;;;;;1961582;71;21025;-72
2022/10/26 12:55:42;;;;;;;1.25;0.60;;;21.40;99.90;;;;;;1978389;71;21525;-72
2022/10/26 12:58:33;;;;;;;4.53;1.00;;;21.40;99.90;;;;;;1971571;71;21154;-72
2022/10/26 13:01:05;;;;;;;8.13;0.90;;;21.60;99.90;;;;;;1976293;71;21026;-72
2022/10/26 13:04:06;;;;;;;7.97;0.95;;;21.60;99.90;;;;;;1986586;71;21259;-71
2022/10/26 13:06:45;;;;;;;3.35;1.10;;;21.60;99.90;;;;;;1966715;71;21052;-71
2022/10/26 13:09:23;;;;;;;1.57;0.78;;;21.70;99.90;;;;;;1971912;71;21060;-72
2022/10/26 13:11:53;;;;;;;5.35;1.07;;;21.90;99.90;;;;;;1964510;71;21052;-73